Terminal Aerodrome Forecast
Issued by NWS Bismarck, ND

Home | Current Version | Previous Version | Graphics & Text | Print | Product List | Glossary On
Versions: 1 2 3 4 5 6 7 8 9 10 11 12
696
FTUS43 KBIS 192326
TAFISN
TAF
KISN 192326Z 2000/2024 34020G31KT P6SM SKC
     FM200200 34006KT P6SM FEW130
     FM201800 28004KT P6SM FEW140
     FM202100 22005KT P6SM FEW150=

USA.gov is the U.S. government's official web portal to all federal, state and local government web resources and services.